• Join FlightAware (Why Join?)
  • Login
  • US Flag 
02:58PM EDT


 

Airport Tracker/Info


-or-


 

Live Flight TrackerFlight Track Log ✈ AIP5009 ✈ 08-Feb-2014 ✈ KMSO - KBIL

Flight Track Log - Related Links

Times and Time Zones

All times are in EST time to prevent confusion due to time zone crossing. See the AIP5009 flight status page for this flight to view local times or setup timezone preferences in your user account.

Time Position Orientation Groundspeed Altitude Reporting Facility
EST Latitude Longitude Course Direction KTS MPH feet Rate Location/Type
04:53AM 46.9247 -114.1111 108° East 223 257 4,700  Level Salt Lake Center
04:54AM 46.9008 -114.1256 202° Southwest 150 173 7,500 2,700 Climbing Salt Lake Center
04:55AM 46.9053 -114.0631 84° East 158 182 10,100 2,400 Climbing Salt Lake Center
04:56AM 46.8922 -113.9931 105° East 178 205 12,400 2,220 Climbing Salt Lake Center
04:57AM 46.8772 -113.9136 105° East 197 227 14,600 2,160 Climbing Salt Lake Center
04:58AM 46.8293 -113.5917 107° East  Level Estimated
04:58AM 46.8636 -113.8253 103° East 219 252 16,800  Level Salt Lake Center
04:59AM 46.8078 -113.4937 108° East  Level FlightAware Approximate
04:59AM 46.8469 -113.7319 105° East 235 270 19,200  Level Salt Lake Center
05:00AM 46.8231 -113.6364 110° East 252 290 20,900 1,680 Climbing Salt Lake Center
05:01AM 46.8061 -113.5286 103° East 271 312 22,600 1,620 Climbing Salt Lake Center
05:02AM 46.7883 -113.4167 103° East 282 325 24,200 1,140 Climbing Salt Lake Center
05:03AM 46.7683 -113.3017 104° East 295 339 25,000 420 Climbing Salt Lake Center
05:04AM 46.7411 -113.1703 107° East 334 384 25,100  Climbing Salt Lake Center
05:05AM 46.7156 -113.0322 105° East 352 405 25,000 -60 Descending Salt Lake Center
05:06AM 46.6928 -112.8922 103° East 356 410 25,000  Level Salt Lake Center
05:07AM 46.6686 -112.7536 104° East 356 410 25,000  Level Salt Lake Center
05:08AM 46.6403 -112.6167 107° East 355 409 25,000  Level Salt Lake Center
05:09AM 46.6156 -112.4772 104° East 356 410 25,000  Level Salt Lake Center
05:10AM 46.5894 -112.3392 105° East 356 410 25,000  Level Salt Lake Center
05:11AM 46.5628 -112.2017 106° East 356 410 25,000  Level Salt Lake Center
05:12AM 46.5342 -112.0628 107° East 359 413 25,000  Level Salt Lake Center
05:13AM 46.5092 -111.9211 104° East 363 418 25,000  Level Salt Lake Center
05:14AM 46.4817 -111.7836 106° East 361 415 25,000  Level Salt Lake Center
05:15AM 46.4528 -111.6450 107° East 361 415 25,000  Level Salt Lake Center
05:16AM 46.4225 -111.4961 106° East 360 414 25,000  Level Salt Lake Center
05:17AM 46.3975 -111.3517 104° East 363 418 25,000  Level Salt Lake Center
05:18AM 46.3697 -111.2200 107° East 364 419 25,000  Level Salt Lake Center
05:19AM 46.3375 -111.0800 108° East 360 414 25,100  Climbing Salt Lake Center
05:20AM 46.3164 -110.9533 104° East 363 418 25,000 -60 Descending Salt Lake Center
05:21AM 46.2869 -110.8158 107° East 360 414 25,000  Level Salt Lake Center
05:22AM 46.2553 -110.6792 108° East 360 414 25,000  Level Salt Lake Center
05:23AM 46.2281 -110.5403 106° East 361 415 25,000  Level Salt Lake Center
05:24AM 46.1978 -110.4042 108° East 358 412 25,000  Level Salt Lake Center
05:25AM 46.1703 -110.2644 106° East 361 415 25,000 -480 Level Salt Lake Center
05:26AM 46.1392 -110.1272 108° East 361 415 24,100 -1,200 Descending Salt Lake Center
05:27AM 46.1128 -109.9947 106° East 350 403 22,700 -1,320 Descending Salt Lake Center
05:28AM 46.0872 -109.8656 106° East 338 389 21,500 -1,440 Descending Salt Lake Center
05:29AM 46.0544 -109.7300 109° East 331 381 19,900 -1,800 Descending Salt Lake Center
05:30AM 46.0269 -109.5911 106° East 335 386 17,900 -1,800 Descending Salt Lake Center
05:31AM 45.9992 -109.4739 109° East 317 365 16,300 -1,380 Descending Salt Lake Center
05:32AM 45.9833 -109.3547 101° East 309 356 15,200 -1,260 Descending Salt Lake Center
05:33AM 45.9781 -109.2356 94° East 303 349 13,800 -1,200 Descending Salt Lake Center
05:34AM 45.9722 -109.1219 94° East 292 336 12,800 -1,200 Descending Salt Lake Center
05:35AM 45.9433 -109.0233 113° Southeast 273 314 11,500 -1,740 Descending Salt Lake Center
05:36AM 45.9147 -108.9222 112° Southeast 276 318 9,400 -2,040 Descending Salt Lake Center
05:37AM 45.8894 -108.8308 112° Southeast 255 293 7,500 -1,320 Descending Salt Lake Center
05:38AM 45.8639 -108.7403 112° Southeast 234 269 6,800 -900 Descending Salt Lake Center
05:39AM 45.8425 -108.6633 112° Southeast 217 250 5,700 -1,200 Descending Salt Lake Center
05:40AM 45.8256 -108.6006 111° Southeast 178 205 4,500 -1,080 Descending Salt Lake Center
05:41AM 45.8122 -108.5544 113° Southeast 133 153 3,600 -900 Descending Salt Lake Center
05:43AM 45.8077 -108.5429 110° East  Level Estimated
05:50AM 45.8077 -108.5429 110° East  Level Estimated